Time;durP1;ratioP1;P1;durP2;ratioP2;P2;SDS_P1;SDS_P2;PMS_P1;PMS_P2;Temp;Humidity;BMP_temperature;BMP_pressure;BME280_temperature;BME280_humidity;BME280_pressure;Samples;Min_cycle;Max_cycle;Signal;HPM_P1;HPM_P2
2022/08/09 00:00:18;;;;;;;8.97;4.33;;;21.10;92.30;;;;;;5033366;28;20671;-67
2022/08/09 00:02:44;;;;;;;4.37;3.97;;;21.10;92.50;;;;;;5032604;28;20242;-67
2022/08/09 00:05:10;;;;;;;7.33;4.80;;;21.00;92.50;;;;;;5032436;28;20812;-67
2022/08/09 00:07:36;;;;;;;4.80;4.40;;;20.90;92.60;;;;;;5032525;28;20188;-67
2022/08/09 00:10:03;;;;;;;8.23;3.83;;;20.90;93.20;;;;;;5032373;28;20239;-68
2022/08/09 00:12:28;;;;;;;4.43;4.13;;;20.80;92.70;;;;;;5032248;28;20454;-65
2022/08/09 00:14:54;;;;;;;4.87;4.37;;;20.90;94.10;;;;;;5032364;28;20413;-67
2022/08/09 00:17:20;;;;;;;6.77;4.13;;;20.90;93.90;;;;;;5032120;28;20688;-67
2022/08/09 00:19:46;;;;;;;6.90;4.43;;;20.90;94.20;;;;;;5031914;28;20262;-67
2022/08/09 00:22:11;;;;;;;5.87;4.80;;;20.90;94.30;;;;;;5032449;28;20212;-65
2022/08/09 00:24:37;;;;;;;11.27;4.80;;;20.80;95.20;;;;;;5032254;28;20175;-66
2022/08/09 00:27:03;;;;;;;7.87;4.50;;;20.80;94.70;;;;;;5032207;28;20183;-65
2022/08/09 00:29:29;;;;;;;5.17;3.97;;;20.70;94.60;;;;;;5032247;28;20660;-67
2022/08/09 00:31:55;;;;;;;4.50;4.10;;;20.60;95.30;;;;;;5032336;28;20434;-66
2022/08/09 00:34:20;;;;;;;8.10;4.60;;;20.60;95.30;;;;;;5032399;28;20168;-66
2022/08/09 00:36:47;;;;;;;6.67;4.70;;;20.60;95.60;;;;;;5032392;28;20191;-66
2022/08/09 00:39:13;;;;;;;15.30;6.00;;;20.50;96.10;;;;;;5031873;28;20183;-66
2022/08/09 00:41:39;;;;;;;14.23;5.27;;;20.60;96.40;;;;;;5032072;28;20454;-66
2022/08/09 00:44:05;;;;;;;8.57;4.63;;;20.60;96.20;;;;;;5032105;28;20175;-66
2022/08/09 00:46:30;;;;;;;5.97;5.27;;;20.60;96.50;;;;;;5032006;28;20202;-66
2022/08/09 00:48:56;;;;;;;5.07;4.53;;;20.60;96.70;;;;;;5031627;28;20202;-67
2022/08/09 00:51:22;;;;;;;5.70;4.70;;;20.50;96.80;;;;;;5031899;28;20187;-66
2022/08/09 00:53:49;;;;;;;5.90;4.57;;;20.40;97.50;;;;;;5032025;28;20183;-66
2022/08/09 00:56:15;;;;;;;5.17;4.27;;;20.50;97.40;;;;;;5031616;28;20777;-67
2022/08/09 00:58:41;;;;;;;6.70;4.40;;;20.50;97.90;;;;;;5031144;28;20402;-67
2022/08/09 01:01:17;;;;;;;8.10;5.33;;;20.30;97.90;;;;;;5031631;28;20431;-67
2022/08/09 01:03:56;;;;;;;5.07;4.67;;;20.40;98.70;;;;;;5031520;28;20803;-68
2022/08/09 01:06:43;;;;;;;10.23;4.20;;;20.30;99.00;;;;;;5031533;28;20841;-67
2022/08/09 01:09:27;;;;;;;11.17;5.30;;;20.30;99.20;;;;;;5031224;28;20453;-67
2022/08/09 01:12:31;;;;;;;6.60;4.50;;;20.30;99.90;;;;;;5031403;28;20442;-67
2022/08/09 01:15:06;;;;;;;7.30;4.37;;;20.30;99.90;;;;;;5031642;28;20401;-66
2022/08/09 01:17:40;;;;;;;5.10;4.10;;;20.20;99.80;;;;;;5031425;28;20429;-67
2022/08/09 01:20:06;;;;;;;11.10;4.40;;;20.20;99.90;;;;;;5031479;28;20438;-67
2022/08/09 01:23:23;;;;;;;4.90;4.50;;;20.10;99.90;;;;;;5032777;28;20466;-67
2022/08/09 01:26:13;;;;;;;7.30;5.20;;;20.10;99.90;;;;;;5008930;28;20195;-66
2022/08/09 01:28:43;;;;;;;5.47;4.93;;;20.10;99.90;;;;;;5031412;28;20398;-67
2022/08/09 01:31:18;;;;;;;11.43;5.03;;;20.00;99.90;;;;;;5031300;28;20465;-67
2022/08/09 01:33:46;;;;;;;7.10;4.60;;;20.00;99.90;;;;;;5031160;28;20489;-67
2022/08/09 01:36:16;;;;;;;9.63;5.57;;;19.90;99.90;;;;;;5031151;28;20403;-67
2022/08/09 01:38:45;;;;;;;6.13;4.37;;;19.80;99.90;;;;;;5030754;28;20560;-67
2022/08/09 01:41:13;;;;;;;6.10;4.97;;;19.80;99.90;;;;;;5030748;28;20957;-67
2022/08/09 01:43:41;;;;;;;7.50;4.50;;;19.70;99.90;;;;;;5031047;28;20417;-67
2022/08/09 01:46:10;;;;;;;5.63;4.90;;;19.70;99.90;;;;;;5030907;28;20438;-66
2022/08/09 01:48:36;;;;;;;6.97;4.50;;;19.70;99.90;;;;;;5030477;28;20881;-65
2022/08/09 01:51:02;;;;;;;6.87;4.67;;;19.80;99.90;;;;;;5031231;28;20793;-66
2022/08/09 01:53:29;;;;;;;5.00;4.47;;;19.80;99.90;;;;;;5030752;28;20866;-66
2022/08/09 01:55:57;;;;;;;5.47;4.50;;;19.70;99.90;;;;;;5030856;28;20426;-66
2022/08/09 01:58:26;;;;;;;5.77;4.57;;;19.60;99.90;;;;;;5030865;28;20762;-64
2022/08/09 02:00:53;;;;;;;6.23;4.90;;;19.60;99.90;;;;;;5031022;28;20435;-66
2022/08/09 02:03:20;;;;;;;7.70;4.60;;;19.70;99.90;;;;;;5031088;28;20413;-67
2022/08/09 02:05:50;;;;;;;9.03;4.60;;;19.70;99.90;;;;;;5030582;28;20489;-66
2022/08/09 02:08:19;;;;;;;5.87;5.00;;;19.70;99.90;;;;;;5030434;28;20431;-67
2022/08/09 02:10:48;;;;;;;6.40;5.80;;;19.70;99.90;;;;;;5030469;28;20498;-67
2022/08/09 02:13:19;;;;;;;7.57;4.90;;;19.60;99.90;;;;;;5030806;28;20403;-67
2022/08/09 02:15:50;;;;;;;7.70;5.00;;;19.60;99.90;;;;;;5030759;28;20468;-67
2022/08/09 02:18:22;;;;;;;5.87;4.90;;;19.50;99.90;;;;;;5031190;28;20428;-67
2022/08/09 02:21:04;;;;;;;7.37;5.17;;;19.60;99.90;;;;;;5034591;28;20448;-67
2022/08/09 02:23:37;;;;;;;17.40;5.80;;;19.70;99.90;;;;;;5034688;28;20810;-66
2022/08/09 02:26:05;;;;;;;6.40;5.80;;;19.60;99.90;;;;;;5034691;28;20418;-67
2022/08/09 02:28:39;;;;;;;5.50;5.00;;;19.40;99.90;;;;;;5034079;28;20402;-66
2022/08/09 02:31:17;;;;;;;6.67;6.07;;;19.40;99.90;;;;;;5034254;28;20429;-67
2022/08/09 02:33:44;;;;;;;5.70;5.10;;;19.50;99.90;;;;;;5034648;28;20940;-68
2022/08/09 02:36:21;;;;;;;6.20;5.47;;;19.40;99.90;;;;;;5034367;28;20471;-67
2022/08/09 02:38:53;;;;;;;5.37;4.83;;;19.40;99.90;;;;;;5034086;28;21158;-67
2022/08/09 02:41:31;;;;;;;6.40;5.80;;;19.40;99.90;;;;;;5034219;28;20450;-67
2022/08/09 02:44:03;;;;;;;6.23;5.63;;;19.40;99.90;;;;;;5034465;28;20837;-67
2022/08/09 02:46:32;;;;;;;17.03;7.60;;;19.30;99.90;;;;;;5034298;28;20907;-66
2022/08/09 02:49:02;;;;;;;6.10;5.50;;;19.40;99.90;;;;;;5034014;28;20938;-66
2022/08/09 02:51:33;;;;;;;5.90;5.40;;;19.40;99.90;;;;;;5034328;28;20421;-66
2022/08/09 02:54:01;;;;;;;6.60;5.93;;;19.30;99.90;;;;;;5034136;28;20825;-66
2022/08/09 02:56:29;;;;;;;7.13;6.40;;;19.30;99.90;;;;;;5034243;28;20902;-66
2022/08/09 02:58:56;;;;;;;5.57;5.10;;;19.30;99.90;;;;;;5033853;28;20414;-66
2022/08/09 03:01:22;;;;;;;6.60;6.00;;;19.30;99.90;;;;;;5033898;28;20449;-65
2022/08/09 03:03:48;;;;;;;6.53;5.93;;;19.40;99.90;;;;;;5034046;28;20406;-66
2022/08/09 03:06:16;;;;;;;6.43;5.83;;;19.40;99.90;;;;;;5033929;28;20504;-66
2022/08/09 03:08:45;;;;;;;6.80;6.10;;;19.30;99.90;;;;;;5033827;28;20793;-65
2022/08/09 03:11:18;;;;;;;10.23;6.20;;;19.30;99.90;;;;;;5050799;22;20499;-63
2022/08/09 03:13:46;;;;;;;9.77;5.83;;;19.30;99.90;;;;;;5014042;28;20418;-64
2022/08/09 03:16:18;;;;;;;13.70;6.20;;;19.30;99.90;;;;;;5013821;28;20403;-64
2022/08/09 03:18:46;;;;;;;6.93;5.70;;;19.30;99.90;;;;;;5013837;28;20384;-65
2022/08/09 03:21:18;;;;;;;6.87;6.13;;;19.30;99.90;;;;;;5013849;28;20425;-64
2022/08/09 03:23:45;;;;;;;6.53;5.90;;;19.20;99.90;;;;;;5014219;28;20487;-64
2022/08/09 03:26:13;;;;;;;13.00;6.27;;;19.10;99.90;;;;;;5014538;28;20895;-64
2022/08/09 03:28:40;;;;;;;7.70;5.50;;;19.10;99.90;;;;;;5014218;28;20391;-64
2022/08/09 03:31:07;;;;;;;7.40;5.40;;;19.10;99.90;;;;;;5014076;28;20522;-65
2022/08/09 03:33:34;;;;;;;5.50;4.73;;;19.10;99.90;;;;;;5014293;28;20487;-64
2022/08/09 03:36:01;;;;;;;9.00;5.90;;;19.00;99.90;;;;;;5013795;28;20450;-65
2022/08/09 03:38:27;;;;;;;6.73;5.90;;;18.90;99.90;;;;;;5013432;28;20431;-65
2022/08/09 03:40:52;;;;;;;5.97;5.27;;;19.00;99.90;;;;;;5013815;28;20847;-65
2022/08/09 03:43:18;;;;;;;9.20;5.77;;;19.00;99.90;;;;;;5013807;28;20164;-64
2022/08/09 03:45:44;;;;;;;8.70;5.70;;;19.00;99.90;;;;;;5013445;28;20632;-64
2022/08/09 03:48:09;;;;;;;22.60;6.70;;;19.10;99.90;;;;;;5013332;28;20165;-65
2022/08/09 03:50:37;;;;;;;11.00;7.10;;;19.10;99.90;;;;;;5013591;28;20707;-65
2022/08/09 03:53:06;;;;;;;10.53;5.03;;;19.10;99.90;;;;;;5013809;28;20172;-64
2022/08/09 03:55:32;;;;;;;14.23;6.53;;;19.10;99.90;;;;;;5013577;28;20412;-64
2022/08/09 03:58:00;;;;;;;13.20;6.20;;;19.00;99.90;;;;;;5012885;28;20903;-64
2022/08/09 04:00:27;;;;;;;6.50;5.80;;;19.10;99.90;;;;;;5012804;28;20415;-65
2022/08/09 04:02:54;;;;;;;21.20;6.20;;;19.00;99.90;;;;;;4995620;28;20455;-65
2022/08/09 04:05:20;;;;;;;12.57;6.77;;;18.80;99.90;;;;;;5013719;28;20399;-64
2022/08/09 04:07:46;;;;;;;22.77;6.80;;;18.80;99.90;;;;;;5012996;28;20771;-64
2022/08/09 04:10:14;;;;;;;25.27;7.10;;;18.90;99.90;;;;;;5012923;28;20447;-64
2022/08/09 04:12:45;;;;;;;22.87;6.40;;;18.90;99.90;;;;;;5012716;28;20443;-65
2022/08/09 04:15:13;;;;;;;34.57;9.37;;;19.00;99.90;;;;;;5012688;28;20745;-64
2022/08/09 04:17:40;;;;;;;32.33;7.03;;;19.10;99.90;;;;;;5012637;28;20876;-65
2022/08/09 04:20:08;;;;;;;9.30;5.20;;;19.20;99.90;;;;;;5012553;28;20411;-65
2022/08/09 04:22:34;;;;;;;19.90;5.47;;;19.20;99.90;;;;;;5012536;28;20435;-64
2022/08/09 04:25:00;;;;;;;22.83;7.00;;;19.30;99.90;;;;;;5012722;28;20415;-65
2022/08/09 04:27:27;;;;;;;9.63;6.23;;;19.20;99.90;;;;;;5012395;28;20995;-65
2022/08/09 04:29:52;;;;;;;28.03;10.40;;;19.20;99.90;;;;;;5012690;28;20443;-65
2022/08/09 04:32:18;;;;;;;45.17;8.30;;;19.20;99.90;;;;;;5012482;28;20434;-64
2022/08/09 04:34:44;;;;;;;22.63;6.80;;;19.30;99.90;;;;;;5012757;28;20169;-65
2022/08/09 04:37:10;;;;;;;27.03;6.87;;;19.30;99.90;;;;;;5012316;28;20482;-65
2022/08/09 04:39:37;;;;;;;20.00;6.87;;;19.30;99.90;;;;;;5012404;28;20172;-65
2022/08/09 04:42:02;;;;;;;6.03;5.40;;;19.20;99.90;;;;;;5011743;28;20222;-66
2022/08/09 04:44:28;;;;;;;61.43;10.90;;;18.90;99.90;;;;;;5012336;28;20411;-64
2022/08/09 04:46:54;;;;;;;7.60;5.50;;;19.10;99.90;;;;;;5012245;28;20184;-64
2022/08/09 04:49:20;;;;;;;12.00;5.33;;;19.10;99.90;;;;;;5012259;28;20243;-63
2022/08/09 04:51:45;;;;;;;8.10;4.40;;;19.10;99.90;;;;;;5012329;28;20180;-63
2022/08/09 04:54:11;;;;;;;9.50;5.03;;;19.10;99.90;;;;;;5012172;28;20202;-63
2022/08/09 04:56:37;;;;;;;9.57;5.87;;;19.30;99.90;;;;;;5012019;28;20165;-63
2022/08/09 04:59:02;;;;;;;10.70;5.43;;;19.40;99.90;;;;;;5011883;28;20172;-64
2022/08/09 05:01:28;;;;;;;22.97;6.17;;;19.70;99.90;;;;;;5011841;28;20203;-63
2022/08/09 05:03:54;;;;;;;5.53;4.83;;;20.60;99.90;;;;;;5011962;28;20512;-63
2022/08/09 05:06:19;;;;;;;9.23;4.73;;;20.90;99.90;;;;;;5012098;28;20176;-63
2022/08/09 05:08:45;;;;;;;7.37;5.13;;;21.00;99.90;;;;;;5011502;28;20173;-65
2022/08/09 05:11:11;;;;;;;9.63;5.27;;;20.90;99.90;;;;;;5011767;28;20204;-64
2022/08/09 05:13:37;;;;;;;10.80;4.73;;;20.80;99.90;;;;;;5011769;28;20165;-65
2022/08/09 05:16:03;;;;;;;11.50;5.70;;;20.80;99.90;;;;;;5011818;28;20172;-65
2022/08/09 05:18:29;;;;;;;6.60;4.80;;;20.60;99.90;;;;;;5010117;28;20400;-64
2022/08/09 05:20:58;;;;;;;5.67;4.47;;;20.80;99.90;;;;;;5009899;28;20192;-65
2022/08/09 05:23:24;;;;;;;5.13;4.73;;;20.70;99.90;;;;;;5009914;28;20172;-65
2022/08/09 05:25:50;;;;;;;5.40;4.80;;;21.00;99.90;;;;;;5009761;28;20883;-65
2022/08/09 05:28:17;;;;;;;5.63;4.00;;;21.10;99.90;;;;;;5009741;28;20187;-65
2022/08/09 05:30:43;;;;;;;4.53;4.10;;;21.10;99.90;;;;;;5010025;28;20469;-65
2022/08/09 05:33:09;;;;;;;8.20;4.73;;;21.40;99.90;;;;;;5009755;28;20458;-64
2022/08/09 05:35:35;;;;;;;18.50;5.73;;;21.20;99.90;;;;;;5009637;28;20407;-64
2022/08/09 05:38:00;;;;;;;4.90;4.37;;;21.30;99.90;;;;;;5009683;28;20172;-64
2022/08/09 05:40:27;;;;;;;4.43;4.03;;;21.10;99.90;;;;;;5009570;28;20168;-64
2022/08/09 05:42:54;;;;;;;8.87;4.33;;;20.90;99.90;;;;;;5009828;28;20660;-64
2022/08/09 05:45:20;;;;;;;5.33;4.20;;;20.90;99.90;;;;;;5009616;28;21118;-64
2022/08/09 05:47:45;;;;;;;4.50;4.10;;;21.20;99.90;;;;;;5009735;28;20754;-64
2022/08/09 05:50:11;;;;;;;9.13;4.23;;;20.90;99.90;;;;;;5009828;28;20463;-64
2022/08/09 05:52:38;;;;;;;5.63;4.10;;;20.70;99.90;;;;;;5009673;28;20215;-64
2022/08/09 05:55:05;;;;;;;6.00;4.40;;;21.00;99.90;;;;;;5015944;28;20290;-65
2022/08/09 05:57:31;;;;;;;16.43;5.10;;;21.20;99.90;;;;;;5015651;28;20844;-65
2022/08/09 05:59:56;;;;;;;5.30;4.30;;;21.30;99.90;;;;;;5016142;28;20423;-65
2022/08/09 06:02:22;;;;;;;12.40;5.33;;;21.40;98.90;;;;;;5016126;28;20203;-65
2022/08/09 06:04:48;;;;;;;6.30;4.60;;;21.10;98.70;;;;;;5016229;28;20176;-65
2022/08/09 06:07:13;;;;;;;6.47;4.10;;;21.70;98.70;;;;;;5016404;28;20459;-65
2022/08/09 06:09:39;;;;;;;6.40;4.30;;;21.30;96.90;;;;;;5015714;28;20246;-66
2022/08/09 06:12:05;;;;;;;4.80;4.40;;;21.20;97.50;;;;;;5016230;28;20275;-65
2022/08/09 06:14:31;;;;;;;5.10;4.23;;;21.10;96.70;;;;;;5015641;28;20168;-65
2022/08/09 06:16:56;;;;;;;7.40;4.10;;;20.80;96.60;;;;;;5015720;28;20351;-65
2022/08/09 06:19:22;;;;;;;5.17;4.23;;;21.10;98.20;;;;;;5015408;28;20226;-65
2022/08/09 06:21:48;;;;;;;6.33;4.20;;;21.60;97.90;;;;;;5015173;28;20184;-66
2022/08/09 06:24:14;;;;;;;5.60;4.43;;;21.50;97.30;;;;;;5015430;28;20168;-65
2022/08/09 06:26:40;;;;;;;5.37;4.57;;;21.50;96.80;;;;;;5015458;28;20175;-65
2022/08/09 06:29:08;;;;;;;6.13;4.60;;;21.40;97.10;;;;;;5015062;28;20202;-65
2022/08/09 06:31:34;;;;;;;6.53;5.67;;;20.80;99.90;;;;;;5015557;28;20419;-65
2022/08/09 06:34:01;;;;;;;5.60;5.10;;;21.00;96.60;;;;;;5015224;28;20438;-65
2022/08/09 06:36:27;;;;;;;14.63;6.00;;;20.90;96.70;;;;;;5015491;28;20910;-65
2022/08/09 06:38:53;;;;;;;6.23;5.63;;;21.50;97.60;;;;;;5015099;28;20399;-65
2022/08/09 06:41:19;;;;;;;16.63;6.20;;;21.90;97.70;;;;;;5015128;28;20655;-64
2022/08/09 06:43:45;;;;;;;8.03;5.33;;;21.80;97.60;;;;;;5015255;28;20184;-64
2022/08/09 06:46:11;;;;;;;5.90;5.30;;;22.00;96.80;;;;;;5015099;28;20508;-65
2022/08/09 06:48:37;;;;;;;5.40;4.90;;;21.90;96.80;;;;;;5015129;28;20514;-64
2022/08/09 06:51:04;;;;;;;5.33;4.93;;;21.80;96.80;;;;;;5015297;28;20200;-65
2022/08/09 06:53:30;;;;;;;10.17;4.93;;;21.70;96.40;;;;;;5015179;28;20216;-65
2022/08/09 06:55:55;;;;;;;5.37;4.97;;;21.90;96.70;;;;;;5015400;28;20435;-65
2022/08/09 06:58:21;;;;;;;6.30;5.07;;;22.30;97.50;;;;;;5014270;28;20180;-66
2022/08/09 07:00:47;;;;;;;5.50;5.10;;;22.40;97.10;;;;;;5014972;28;20168;-65
2022/08/09 07:03:13;;;;;;;9.40;5.30;;;22.50;96.70;;;;;;5015185;28;20180;-65
2022/08/09 07:05:38;;;;;;;5.50;5.00;;;22.00;96.00;;;;;;5012199;28;20208;-65
2022/08/09 07:08:04;;;;;;;5.97;5.47;;;22.00;95.90;;;;;;5011932;28;20633;-65
2022/08/09 07:10:31;;;;;;;9.10;5.70;;;21.60;96.00;;;;;;5011303;28;20204;-65
2022/08/09 07:12:57;;;;;;;6.10;5.17;;;21.80;97.10;;;;;;5012029;28;20553;-65
2022/08/09 07:15:22;;;;;;;5.20;4.70;;;21.90;97.00;;;;;;5011672;28;20403;-66
2022/08/09 07:17:48;;;;;;;5.03;4.43;;;22.30;98.10;;;;;;5011650;28;20430;-65
2022/08/09 07:20:15;;;;;;;7.13;5.47;;;22.40;98.40;;;;;;5011441;28;20179;-65
2022/08/09 07:22:41;;;;;;;5.13;4.70;;;22.40;98.40;;;;;;5011560;28;20204;-65
2022/08/09 07:25:07;;;;;;;5.80;5.20;;;22.50;97.50;;;;;;5011699;28;20481;-65
2022/08/09 07:27:32;;;;;;;6.77;5.80;;;22.20;97.10;;;;;;5011220;28;20187;-65
2022/08/09 07:29:59;;;;;;;17.87;6.13;;;22.70;97.90;;;;;;5011701;28;20454;-65
2022/08/09 07:32:26;;;;;;;5.57;5.17;;;22.90;98.60;;;;;;5011228;28;20184;-65
2022/08/09 07:34:51;;;;;;;23.33;7.00;;;23.00;98.20;;;;;;5011398;28;20420;-64
2022/08/09 07:37:17;;;;;;;6.13;4.90;;;23.20;97.60;;;;;;5010899;28;20418;-65
2022/08/09 07:39:43;;;;;;;5.60;5.10;;;22.90;97.20;;;;;;5011391;28;20234;-64
2022/08/09 07:42:10;;;;;;;6.23;5.40;;;23.00;97.10;;;;;;5011732;28;20672;-65
2022/08/09 07:44:36;;;;;;;6.40;5.40;;;22.70;97.30;;;;;;5011381;28;20814;-65
2022/08/09 07:47:02;;;;;;;5.80;5.10;;;22.50;97.10;;;;;;5011104;28;20441;-65
2022/08/09 07:49:27;;;;;;;10.50;5.67;;;22.60;98.00;;;;;;5010824;28;20261;-64
2022/08/09 07:51:53;;;;;;;5.90;5.40;;;23.00;99.20;;;;;;5011084;28;20872;-65
2022/08/09 07:54:19;;;;;;;6.10;5.07;;;22.80;97.60;;;;;;5011004;28;20644;-65
2022/08/09 07:56:44;;;;;;;5.53;5.03;;;23.20;98.70;;;;;;5011194;28;20176;-65
2022/08/09 07:59:10;;;;;;;8.10;5.20;;;23.20;97.50;;;;;;5010891;28;20579;-64
2022/08/09 08:01:36;;;;;;;7.30;5.47;;;23.10;97.10;;;;;;5010505;28;20202;-65
2022/08/09 08:04:02;;;;;;;9.10;5.37;;;23.00;97.60;;;;;;5011194;28;20176;-65
2022/08/09 08:06:30;;;;;;;12.70;5.40;;;23.40;98.50;;;;;;5010557;28;20191;-65
2022/08/09 08:08:56;;;;;;;5.77;5.37;;;23.70;97.60;;;;;;5010753;28;20801;-65
2022/08/09 08:11:21;;;;;;;6.53;5.60;;;23.90;97.60;;;;;;5010521;28;20491;-65
2022/08/09 08:13:47;;;;;;;8.50;4.80;;;24.40;97.80;;;;;;5011539;28;20195;-65
2022/08/09 08:16:13;;;;;;;10.07;5.40;;;25.10;97.00;;;;;;5012759;28;20600;-65
2022/08/09 08:18:39;;;;;;;5.87;4.77;;;24.60;95.40;;;;;;5012461;28;20563;-65
2022/08/09 08:21:04;;;;;;;6.63;5.10;;;24.40;95.60;;;;;;5012397;28;20200;-65
2022/08/09 08:23:30;;;;;;;5.33;4.77;;;24.50;95.10;;;;;;5012600;28;20177;-65
2022/08/09 08:25:56;;;;;;;5.53;4.67;;;24.80;95.20;;;;;;5012598;28;20259;-65
2022/08/09 08:28:22;;;;;;;5.30;4.80;;;24.40;93.60;;;;;;5012343;28;20275;-65
2022/08/09 08:30:47;;;;;;;5.53;4.33;;;24.50;93.60;;;;;;5012250;28;20208;-65
2022/08/09 08:33:14;;;;;;;6.33;4.70;;;25.00;93.70;;;;;;5012533;28;20172;-65
2022/08/09 08:35:40;;;;;;;10.57;5.43;;;24.50;92.50;;;;;;5012268;28;20207;-65
2022/08/09 08:38:05;;;;;;;12.10;5.87;;;24.70;92.80;;;;;;5012303;28;20435;-66
2022/08/09 08:40:32;;;;;;;4.83;4.33;;;25.00;92.50;;;;;;5012242;28;20204;-66
2022/08/09 08:42:58;;;;;;;4.30;3.90;;;24.60;90.60;;;;;;5012708;28;20595;-65
2022/08/09 08:45:31;;;;;;;8.10;4.80;;;24.70;91.10;;;;;;5012350;28;20447;-65
2022/08/09 08:47:57;;;;;;;4.93;4.50;;;25.00;91.60;;;;;;5012394;28;20498;-65
2022/08/09 08:50:23;;;;;;;5.17;4.67;;;25.10;90.90;;;;;;5012317;28;20454;-65
2022/08/09 08:52:51;;;;;;;6.47;4.13;;;25.00;90.80;;;;;;5011405;28;20443;-65
2022/08/09 08:55:17;;;;;;;4.50;4.10;;;25.20;89.60;;;;;;5012833;28;20416;-65
2022/08/09 08:57:43;;;;;;;8.73;4.70;;;25.20;86.80;;;;;;5012637;28;21119;-65
2022/08/09 09:00:09;;;;;;;4.37;3.97;;;25.50;86.40;;;;;;5012235;28;20835;-65
2022/08/09 09:02:37;;;;;;;4.37;3.97;;;25.30;85.40;;;;;;5012017;28;20216;-65
2022/08/09 09:05:03;;;;;;;5.57;4.27;;;25.20;82.90;;;;;;5012179;28;20442;-65
2022/08/09 09:07:31;;;;;;;5.70;4.10;;;24.70;78.60;;;;;;5011739;28;20462;-66
2022/08/09 09:09:58;;;;;;;4.77;4.03;;;24.50;77.50;;;;;;5011583;28;20550;-65
2022/08/09 09:12:26;;;;;;;5.00;4.60;;;24.70;77.60;;;;;;5011806;28;20447;-66
2022/08/09 09:14:52;;;;;;;8.13;5.33;;;24.20;76.00;;;;;;5011691;28;20442;-65
2022/08/09 09:17:18;;;;;;;6.50;4.50;;;24.70;78.00;;;;;;5011194;28;20458;-66
2022/08/09 09:19:45;;;;;;;5.27;4.30;;;24.80;79.70;;;;;;4994223;28;20907;-66
2022/08/09 09:22:13;;;;;;;3.90;3.60;;;25.10;79.30;;;;;;5011835;28;20839;-67
2022/08/09 09:24:40;;;;;;;4.70;4.03;;;25.20;75.30;;;;;;5011828;28;20411;-67
2022/08/09 09:27:08;;;;;;;8.17;3.80;;;25.30;73.70;;;;;;5011751;28;20522;-67
2022/08/09 09:29:39;;;;;;;4.03;3.53;;;25.20;72.70;;;;;;5010961;28;20947;-67
2022/08/09 09:32:07;;;;;;;4.23;3.80;;;25.10;69.10;;;;;;5011974;28;20423;-65
2022/08/09 09:34:33;;;;;;;4.30;3.90;;;24.90;67.40;;;;;;5011730;28;20880;-65
2022/08/09 09:37:03;;;;;;;7.50;3.80;;;24.90;66.30;;;;;;5011592;28;20411;-65
2022/08/09 09:39:29;;;;;;;5.07;3.53;;;24.80;67.50;;;;;;5011606;28;20413;-65
2022/08/09 09:41:56;;;;;;;4.90;4.00;;;25.00;67.30;;;;;;5011208;28;20506;-65
2022/08/09 09:44:33;;;;;;;7.70;4.60;;;25.10;65.30;;;;;;5011220;28;20402;-65
2022/08/09 09:47:25;;;;;;;6.90;4.00;;;25.20;63.80;;;;;;5011118;28;20469;-65
2022/08/09 09:49:53;;;;;;;9.00;4.00;;;24.80;61.60;;;;;;5010984;28;20546;-65
2022/08/09 09:52:19;;;;;;;5.40;4.03;;;24.90;80.20;;;;;;5011164;28;20449;-66
2022/08/09 09:54:46;;;;;;;5.17;3.97;;;25.10;59.20;;;;;;5011066;28;20415;-65
2022/08/09 09:57:22;;;;;;;9.13;3.70;;;25.40;58.40;;;;;;5011242;28;20415;-66
2022/08/09 09:59:51;;;;;;;4.83;3.40;;;24.90;56.20;;;;;;5011122;28;20951;-66
2022/08/09 10:02:18;;;;;;;4.30;3.33;;;25.20;55.60;;;;;;5011197;28;20510;-66
2022/08/09 10:04:44;;;;;;;4.70;3.87;;;25.00;54.40;;;;;;5011187;28;20411;-66
2022/08/09 10:07:22;;;;;;;5.43;3.30;;;24.90;51.90;;;;;;5010535;28;20469;-66
2022/08/09 10:09:49;;;;;;;5.07;3.67;;;24.90;51.60;;;;;;5010833;28;20460;-66
2022/08/09 10:12:35;;;;;;;4.40;3.70;;;25.30;52.50;;;;;;5011017;28;20461;-66
2022/08/09 10:15:15;;;;;;;3.67;3.37;;;25.10;49.80;;;;;;5009484;28;20409;-66
2022/08/09 10:17:46;;;;;;;6.90;3.63;;;25.10;47.70;;;;;;5008992;28;20407;-66
2022/08/09 10:20:20;;;;;;;9.30;4.50;;;25.20;46.70;;;;;;5008683;28;20439;-66
2022/08/09 10:22:52;;;;;;;4.37;3.40;;;25.40;46.70;;;;;;5009306;28;20875;-65
2022/08/09 10:25:18;;;;;;;6.30;4.00;;;25.70;46.90;;;;;;5008905;28;20454;-66
2022/08/09 10:27:45;;;;;;;3.47;3.17;;;25.60;45.30;;;;;;5009060;28;20403;-66
2022/08/09 10:30:12;;;;;;;5.10;3.50;;;25.20;43.80;;;;;;5008518;28;20570;-66
2022/08/09 10:32:39;;;;;;;5.77;3.40;;;25.50;44.10;;;;;;5008997;28;20437;-66
2022/08/09 10:35:07;;;;;;;4.60;3.30;;;25.50;43.30;;;;;;5009038;28;20494;-66
2022/08/09 10:37:32;;;;;;;3.07;2.77;;;25.80;43.00;;;;;;5008599;28;20406;-67
2022/08/09 10:39:59;;;;;;;4.20;3.17;;;26.00;41.60;;;;;;5009554;28;20411;-66
2022/08/09 10:42:25;;;;;;;3.53;3.23;;;25.50;38.90;;;;;;5012896;28;20200;-66
2022/08/09 10:45:11;;;;;;;6.23;3.10;;;25.30;37.40;;;;;;5012758;28;20399;-66
2022/08/09 10:47:40;;;;;;;4.00;3.20;;;25.20;35.90;;;;;;5012350;28;20164;-66
2022/08/09 10:51:05;;;;;;;4.20;3.80;;;25.30;34.90;;;;;;5012162;28;20529;-66
2022/08/09 10:53:56;;;;;;;4.00;2.70;;;25.40;33.80;;;;;;5011268;28;20407;-66
2022/08/09 10:56:23;;;;;;;7.03;3.50;;;25.70;33.10;;;;;;5012223;28;20813;-66
2022/08/09 10:58:54;;;;;;;4.40;3.40;;;25.60;31.30;;;;;;5012165;28;20764;-68
2022/08/09 11:01:31;;;;;;;5.60;3.03;;;25.70;30.80;;;;;;5011729;28;20411;-65
2022/08/09 11:04:19;;;;;;;3.13;2.77;;;25.80;29.40;;;;;;5012405;28;20429;-67
2022/08/09 11:06:47;;;;;;;6.80;3.20;;;25.70;27.50;;;;;;5012101;28;20395;-65
2022/08/09 11:09:17;;;;;;;7.53;3.50;;;25.70;27.20;;;;;;5011559;28;20766;-65
2022/08/09 11:11:56;;;;;;;5.70;3.07;;;25.80;26.00;;;;;;5012223;28;20473;-65
2022/08/09 11:14:36;;;;;;;3.80;3.13;;;25.90;25.40;;;;;;5011735;28;20414;-65
2022/08/09 11:17:12;;;;;;;4.67;2.50;;;25.70;23.60;;;;;;5012258;28;20435;-65
2022/08/09 11:20:00;;;;;;;5.70;2.70;;;25.70;22.10;;;;;;5011681;28;20403;-65
2022/08/09 11:22:43;;;;;;;6.67;2.60;;;25.70;20.90;;;;;;5011260;28;20485;-65
2022/08/09 11:25:10;;;;;;;3.57;2.83;;;25.80;20.60;;;;;;5012230;28;20737;-65
2022/08/09 11:27:53;;;;;;;5.70;2.97;;;25.70;20.00;;;;;;5011522;28;20414;-68
2022/08/09 11:30:22;;;;;;;3.10;2.77;;;25.80;19.70;;;;;;5012612;28;20962;-65
2022/08/09 11:33:07;;;;;;;5.23;2.80;;;25.80;18.40;;;;;;5013456;28;20451;-65
2022/08/09 11:35:39;;;;;;;2.80;2.50;;;25.80;17.40;;;;;;5013654;28;20809;-66
2022/08/09 11:38:15;;;;;;;3.20;2.33;;;25.70;16.20;;;;;;5013413;28;20430;-65
2022/08/09 11:40:41;;;;;;;4.17;2.60;;;25.70;16.00;;;;;;5013583;28;20426;-66
2022/08/09 11:43:07;;;;;;;2.70;2.20;;;25.90;15.60;;;;;;5013392;28;20498;-66
2022/08/09 11:45:39;;;;;;;10.37;3.60;;;25.90;14.00;;;;;;5013733;28;20168;-66
2022/08/09 11:48:10;;;;;;;4.23;2.90;;;26.10;23.40;;;;;;5013602;28;20208;-66
2022/08/09 11:51:04;;;;;;;4.13;2.57;;;26.20;14.20;;;;;;5012926;28;20481;-66
2022/08/09 11:53:34;;;;;;;3.23;2.60;;;26.20;12.80;;;;;;5013224;28;20395;-66
2022/08/09 11:56:25;;;;;;;2.83;2.53;;;25.80;11.20;;;;;;5013711;28;20399;-66
2022/08/09 11:58:59;;;;;;;4.37;2.63;;;25.90;10.90;;;;;;5012979;28;20399;-66
2022/08/09 12:01:32;;;;;;;4.13;2.47;;;26.20;10.80;;;;;;5013168;28;20442;-66
2022/08/09 12:04:01;;;;;;;4.50;2.30;;;25.70;8.70;;;;;;5013138;28;20404;-66
2022/08/09 12:06:27;;;;;;;6.50;2.87;;;25.60;8.20;;;;;;5013075;28;20391;-66
2022/08/09 12:08:55;;;;;;;4.13;2.90;;;25.70;9.00;;;;;;5013053;28;20734;-66
2022/08/09 12:11:23;;;;;;;6.97;2.87;;;25.90;8.30;;;;;;5012886;28;20455;-66
2022/08/09 12:13:58;;;;;;;2.67;2.10;;;26.10;8.30;;;;;;5013082;28;20407;-66
2022/08/09 12:16:31;;;;;;;5.60;2.30;;;26.30;8.00;;;;;;5012956;28;20547;-66
2022/08/09 12:18:58;;;;;;;3.00;2.57;;;26.10;6.20;;;;;;5012525;28;20407;-66
2022/08/09 12:21:43;;;;;;;6.10;2.70;;;26.00;5.70;;;;;;5012822;28;20427;-66
2022/08/09 12:24:10;;;;;;;3.90;2.60;;;25.80;4.90;;;;;;5012947;28;20445;-66
2022/08/09 12:26:49;;;;;;;5.47;2.63;;;25.80;4.60;;;;;;4995176;28;20419;-67
2022/08/09 12:29:19;;;;;;;6.20;2.97;;;26.10;4.20;;;;;;5012705;28;20454;-66
2022/08/09 12:31:50;;;;;;;4.57;3.20;;;25.90;3.50;;;;;;5012641;28;20825;-66
2022/08/09 12:34:30;;;;;;;5.77;2.53;;;26.00;3.60;;;;;;5012888;28;20407;-66
2022/08/09 12:36:56;;;;;;;3.70;2.40;;;26.20;3.00;;;;;;5012991;28;20406;-67
2022/08/09 12:39:22;;;;;;;5.10;3.00;;;26.40;3.20;;;;;;5012582;28;20407;-67
2022/08/09 12:41:48;;;;;;;5.93;2.60;;;26.40;2.50;;;;;;5012730;28;20200;-67
2022/08/09 12:44:14;;;;;;;3.10;2.77;;;26.50;3.20;;;;;;5012646;28;20457;-66
2022/08/09 12:46:43;;;;;;;6.43;2.43;;;26.50;2.40;;;;;;5012406;28;20172;-66
2022/08/09 12:49:10;;;;;;;3.93;2.60;;;26.10;1.30;;;;;;5011936;28;20434;-67
2022/08/09 12:51:36;;;;;;;5.20;2.70;;;26.00;1.10;;;;;;5012109;28;20973;-66
2022/08/09 12:54:03;;;;;;;8.27;3.07;;;26.20;1.10;;;;;;5012055;28;20418;-66